Latest Weather Observations for Richmond

IDN60801

Issued at 10:03 am EDT Monday 20 February 2017 (issued every 30 minutes, with the page automatically refreshed every 10 minutes)

About weather observations | Map of weather stations | Latest weather observations for NSW | Other Formats
Station Details ID: 067105 Name: RICHMOND RAAF Lat: -33.60 Lon: 150.78 Height: 19.0 m
Data from the previous 72 hours. | See also: Recent months at Richmond
Date/Time
EDT
Temp
°C
App
Temp
°C
Dew
Point
°C
Rel
Hum
%
Delta-T
°C
Wind Press
QNH
hPa
Press
MSL
hPa
Rain since
9am
mm
Dir  Spd
km/h
Gust
km/h
Spd
kts
Gust
kts
20/10:00am 21.4 17.0 4.5 33 8.3 W 17 24 9 13 1011.9 1011.8 0.0
20/09:30am 20.8 15.1 4.8 35 7.8 W 24 35 13 19 1011.8 1011.7 0.0
20/09:00am 20.3 15.0 5.1 37 7.5 W 22 41 12 22 1011.8 1011.7 0.0
20/08:30am 19.2 15.3 7.0 45 6.2 WNW 17 22 9 12 1011.8 1011.7 0.0
20/08:00am 17.9 15.5 8.5 54 4.8 NNW 11 15 6 8 1011.7 1011.6 0.0
20/07:30am 16.7 14.1 7.9 56 4.4 WNW 11 17 6 9 1011.4 1011.3 0.0
20/07:00am 15.7 13.5 6.4 54 4.5 NW 7 9 4 5 1011.0 1010.9 0.0
20/06:30am 15.0 12.4 6.0 55 4.3 NW 9 13 5 7 1010.6 1010.5 0.0
20/06:00am 16.1 12.9 5.1 48 5.2 WNW 11 15 6 8 1010.0 1009.9 0.0
20/05:30am 17.2 13.6 4.9 44 5.9 WSW 13 20 7 11 1009.6 1009.5 0.0
20/05:00am 16.9 13.3 4.9 45 5.7 WSW 13 19 7 10 1009.2 1009.1 0.0
20/04:30am 17.6 14.6 4.2 41 6.3 WSW 9 11 5 6 1008.9 1008.8 0.0
20/04:00am 18.6 13.5 3.3 36 7.2 WSW 19 26 10 14 1008.6 1008.5 0.0
20/03:30am 19.5 13.5 3.2 34 7.6 WSW 24 37 13 20 1008.2 1008.1 0.0
20/03:00am 19.2 14.0 3.8 36 7.3 W 20 28 11 15 1007.7 1007.6 0.0
20/02:30am 19.1 15.1 4.8 39 6.9 W 15 22 8 12 1007.4 1007.3 0.0
20/02:00am 17.8 14.7 5.7 45 5.9 W 11 13 6 7 1007.3 1007.2 0.0
20/01:30am 19.3 15.6 4.6 38 7.1 WSW 13 20 7 11 1007.2 1007.1 0.0
20/01:00am 20.3 15.6 5.1 37 7.5 W 19 22 10 12 1007.3 1007.2 0.0
20/12:30am 20.5 16.2 7.2 42 6.8 W 19 24 10 13 1007.2 1007.1 0.0
20/12:00am 20.0 21.5 18.0 88 1.2 WSW 7 9 4 5 1007.2 1007.1 0.0
 
Date/Time
EDT
Temp
°C
App
Temp
°C
Dew
Point
°C
Rel
Hum
%
Delta-T
°C
Wind Press
QNH
hPa
Press
MSL
hPa
Rain since
9am
mm
Dir  Spd
km/h
Gust
km/h
Spd
kts
Gust
kts
19/11:30pm 20.4 22.2 18.2 87 1.4 WSW 6 9 3 5 1007.3 1007.2 0.0
19/11:00pm 20.8 21.8 18.6 87 1.4 SSW 11 13 6 7 1007.0 1006.9 0.0
19/10:30pm 20.6 21.9 18.5 88 1.3 WNW 9 11 5 6 1007.3 1007.2 0.0
19/10:00pm 21.0 23.2 18.4 85 1.6 NW 4 9 2 5 1007.3 1007.2 0.0
19/09:30pm 21.0 24.0 18.4 85 1.6 CALM 0 0 0 0 1006.3 1006.2 0.0
19/09:00pm 21.5 24.4 18.3 82 2.0 CALM 0 0 0 0 1005.9 1005.8 0.0
19/08:30pm 21.6 23.2 18.2 81 2.1 NNE 7 9 4 5 1006.0 1005.9 0.0
19/08:00pm 22.2 22.8 17.8 76 2.7 ENE 11 15 6 8 1006.1 1006.0 0.0
19/07:30pm 22.9 22.6 17.4 71 3.4 E 15 20 8 11 1005.6 1005.5 0.0
19/07:00pm 23.8 22.6 17.1 66 4.2 E 19 28 10 15 1005.3 1005.2 0.0
19/06:30pm 25.3 23.4 16.7 59 5.3 ENE 22 28 12 15 1004.2 1004.1 0.0
19/06:00pm 25.6 23.6 16.5 57 5.6 ENE 22 28 12 15 1004.2 1004.1 0.0
19/05:30pm 26.6 24.4 16.8 55 6.1 E 24 35 13 19 1003.7 1003.6 0.0
19/05:00pm 28.3 27.5 16.2 47 7.5 ENE 15 22 8 12 1003.6 1003.5 0.0
19/04:30pm 28.3 26.9 14.5 43 8.3 NE 15 26 8 14 1003.7 1003.6 0.0
19/04:00pm 28.5 26.4 13.6 40 8.9 NE 17 26 9 14 1003.9 1003.8 0.0
19/03:30pm 28.1 25.9 13.2 39 8.8 ENE 17 24 9 13 1004.3 1004.2 0.0
19/03:00pm 27.7 25.5 12.1 38 9.1 NE 15 24 8 13 1005.0 1004.9 0.0
19/02:30pm 26.7 24.1 10.8 37 9.0 ENE 15 22 8 12 1005.6 1005.5 0.0
19/02:00pm 26.1 23.7 9.9 36 9.0 E 13 24 7 13 1006.3 1006.2 0.0
19/01:30pm 26.4 24.6 10.9 38 8.7 NE 11 19 6 10 1007.0 1006.9 0.0
19/01:00pm 25.8 24.5 11.2 40 8.3 E 9 17 5 9 1007.4 1007.3 0.0
19/12:30pm 24.8 23.4 9.5 38 8.4 E 7 13 4 7 1007.9 1007.8 0.0
19/12:00pm 23.9 22.7 10.2 42 7.6 S 7 15 4 8 1008.5 1008.4 0.0
19/11:30am 23.6 21.2 9.9 42 7.5 SSW 13 17 7 9 1008.8 1008.7 0.0
19/11:00am 22.8 20.3 9.6 43 7.2 SSW 13 19 7 10 1009.2 1009.1 0.0
19/10:30am 22.1 20.6 10.6 48 6.3 SW 9 15 5 8 1009.2 1009.1 0.0
19/10:00am 22.1 19.8 11.8 52 5.8 SSW 15 19 8 10 1009.1 1009.0 0.0
19/09:30am 21.0 19.3 12.4 58 4.8 SSW 13 22 7 12 1009.3 1009.2 0.0
19/09:00am 21.2 20.5 14.4 65 4.0 SSW 11 15 6 8 1009.1 1009.0 3.4
19/08:30am 19.9 19.3 14.7 72 3.0 S 11 17 6 9 1009.2 1009.1 3.4
19/08:00am 19.7 19.5 15.8 78 2.3 SSW 11 15 6 8 1009.1 1009.0 3.4
19/07:30am 19.4 19.3 16.1 81 2.0 S 11 13 6 7 1008.9 1008.8 3.4
19/07:00am 19.4 19.0 16.1 81 2.0 SSE 13 15 7 8 1008.7 1008.6 3.4
19/06:30am 19.4 19.9 16.6 84 1.7 S 9 17 5 9 1008.2 1008.1 3.4
19/06:00am 19.5 19.2 16.5 83 1.8 SSE 13 15 7 8 1007.4 1007.3 3.4
19/05:30am 20.1 20.1 17.1 83 1.8 SSE 13 19 7 10 1007.0 1006.9 3.4
19/05:00am 20.6 20.9 18.0 85 1.6 SE 13 17 7 9 1006.9 1006.8 3.4
19/04:30am 20.7 21.3 18.5 87 1.4 ESE 13 17 7 9 1006.6 1006.5 3.4
19/04:00am 21.2 22.3 18.9 87 1.5 SE 11 17 6 9 1006.5 1006.4 3.4
19/03:30am 21.5 22.7 19.1 86 1.5 ESE 11 13 6 7 1006.5 1006.4 3.4
19/03:00am 21.4 23.6 19.1 87 1.5 SE 6 9 3 5 1006.3 1006.2 3.4
19/02:30am 21.1 23.3 19.2 89 1.2 SW 6 9 3 5 1005.8 1005.7 3.4
19/02:00am 21.2 23.1 18.9 87 1.5 SSW 7 9 4 5 1006.2 1006.1 3.4
19/01:30am 21.4 23.4 19.1 87 1.5 WSW 7 9 4 5 1006.6 1006.5 3.4
19/01:00am 21.4 23.3 19.0 86 1.5 SW 7 9 4 5 1006.5 1006.4 3.4
19/12:30am 21.6 23.4 18.8 84 1.8 SSW 7 9 4 5 1006.6 1006.5 3.4
19/12:00am 21.8 23.7 19.0 84 1.8 SSW 7 11 4 6 1006.7 1006.6 3.4
 
Date/Time
EDT
Temp
°C
App
Temp
°C
Dew
Point
°C
Rel
Hum
%
Delta-T
°C
Wind Press
QNH
hPa
Press
MSL
hPa
Rain since
9am
mm
Dir  Spd
km/h
Gust
km/h
Spd
kts
Gust
kts
18/11:30pm 21.8 23.3 19.0 84 1.8 SSW 9 13 5 7 1006.8 1006.7 3.4
18/11:00pm 21.7 23.9 19.3 86 1.5 SSW 6 7 3 4 1007.1 1007.0 3.4
18/10:30pm 21.7 24.9 18.9 84 1.8 CALM 0 0 0 0 1007.2 1007.1 3.4
18/10:00pm 21.5 23.0 18.9 85 1.6 SW 9 11 5 6 1007.1 1007.0 3.4
18/09:30pm 21.6 22.6 18.6 83 1.9 SW 11 15 6 8 1007.2 1007.1 3.4
18/09:00pm 21.7 23.4 19.3 86 1.5 SW 9 15 5 8 1006.8 1006.7 3.4
18/08:30pm 21.8 23.4 19.2 85 1.6 SSW 9 15 5 8 1006.1 1006.0 3.4
18/08:00pm 21.7 22.4 18.9 84 1.8 S 13 19 7 10 1005.9 1005.8 3.4
18/07:39pm 22.0 22.5 19.2 84 1.8 S 15 22 8 12 1005.7 1005.6 3.4
18/07:30pm 22.0 21.6 19.4 85 1.7 SSE 20 32 11 17 1005.5 1005.4 3.4
18/07:00pm 22.9 23.2 20.4 86 1.6 SSE 19 24 10 13 1005.4 1005.3 3.4
18/06:44pm 23.2 23.6 20.9 87 1.5 SE 20 28 11 15 1005.4 1005.3 3.4
18/06:30pm 23.5 24.1 21.0 86 1.6 SE 19 24 10 13 1004.8 1004.7 3.4
18/06:00pm 23.1 25.5 20.8 87 1.5 SSE 9 15 5 8 1004.8 1004.7 3.4
18/05:52pm 23.2 25.1 21.3 89 1.2 SE 13 17 7 9 1004.7 1004.6 3.4
18/05:42pm 23.2 25.4 20.5 85 1.8 SSE 9 17 5 9 1004.6 1004.5 3.0
18/05:30pm 24.4 24.8 19.9 76 2.9 SE 17 22 9 12 1004.6 1004.5 0.2
18/05:00pm 24.9 24.7 19.7 73 3.4 SSE 20 28 11 15 1003.8 1003.7 0.2
18/04:30pm 26.3 26.5 21.3 74 3.3 ESE 22 30 12 16 1003.5 1003.4 0.2
18/04:00pm 26.9 25.2 20.5 68 4.2 ESE 30 39 16 21 1002.9 1002.8 0.2
18/03:59pm 27.0 25.9 21.1 70 3.9 ESE 28 39 15 21 1002.9 1002.8 0.2
18/03:44pm 27.1 27.9 21.4 71 3.8 E 19 37 10 20 1003.7 1003.6 0.2
18/03:30pm 27.2 26.1 21.0 69 4.1 E 28 39 15 21 1001.7 1001.6 0.2
18/03:00pm 30.0 30.2 20.5 56 6.3 ESE 20 32 11 17 1003.3 1003.2 0.2
18/02:30pm 31.4 31.5 21.8 56 6.5 ESE 24 35 13 19 1003.9 1003.8 0.2
18/02:00pm 30.4 29.8 19.7 52 7.0 SE 22 33 12 18 1004.2 1004.1 0.2
18/01:30pm 30.2 29.5 20.2 55 6.6 SE 24 32 13 17 1004.3 1004.2 0.2
18/01:00pm 30.7 30.1 20.6 54 6.7 SSE 24 32 13 17 1004.5 1004.4 0.2
18/12:30pm 31.0 31.1 20.3 53 7.1 SE 20 28 11 15 1004.7 1004.6 0.2
18/12:00pm 30.3 31.0 20.5 55 6.5 SSE 17 22 9 12 1005.2 1005.1 0.2
18/11:30am 30.7 31.7 20.3 53 6.9 SE 15 22 8 12 1005.5 1005.4 0.2
18/11:00am 30.0 30.9 20.0 55 6.6 S 15 24 8 13 1006.1 1006.0 0.2
18/10:30am 29.6 31.3 20.2 57 6.2 S 11 19 6 10 1006.1 1006.0 0.2
18/10:00am 28.5 30.0 20.5 62 5.3 SE 13 17 7 9 1005.8 1005.7 0.0
18/09:30am 27.1 28.4 19.4 62 5.0 ESE 11 17 6 9 1006.0 1005.9 0.0
18/09:00am 26.4 28.7 19.8 67 4.3 ENE 7 11 4 6 1005.9 1005.8 12.4
18/08:30am 24.7 26.4 19.3 72 3.5 NE 9 11 5 6 1006.0 1005.9 12.4
18/08:00am 23.3 24.6 19.2 78 2.6 NNE 11 15 6 8 1005.7 1005.6 12.4
18/07:30am 22.4 23.3 19.2 82 2.0 NNE 13 15 7 8 1005.4 1005.3 12.4
18/07:00am 22.1 23.7 19.1 83 1.9 NNE 9 13 5 7 1005.2 1005.1 12.4
18/06:30am 22.2 23.7 18.8 81 2.1 N 9 11 5 6 1005.1 1005.0 12.4
18/06:00am 22.0 23.4 18.6 81 2.1 NNE 9 15 5 8 1004.5 1004.4 12.4
18/05:30am 22.1 23.1 18.7 81 2.1 N 11 15 6 8 1005.1 1005.0 12.4
18/05:00am 21.6 23.1 19.0 85 1.6 NNE 9 13 5 7 1005.2 1005.1 12.4
18/04:30am 21.7 23.8 19.3 86 1.5 NNE 7 11 4 6 1005.7 1005.6 12.4
18/04:00am 21.6 24.9 19.0 85 1.6 CALM 0 0 0 0 1006.3 1006.2 12.4
18/03:30am 21.6 22.0 19.0 85 1.6 NE 15 17 8 9 1006.0 1005.9 12.4
18/03:00am 21.4 22.2 19.1 87 1.5 NE 13 17 7 9 1006.0 1005.9 12.4
18/02:30am 21.2 22.9 19.3 89 1.2 NE 9 11 5 6 1006.5 1006.4 12.4
18/02:00am 21.6 23.5 19.7 89 1.2 NE 9 11 5 6 1007.0 1006.9 12.4
18/01:30am 21.9 23.7 19.6 87 1.5 ENE 9 11 5 6 1007.5 1007.4 12.4
18/01:00am 21.9 24.1 19.6 87 1.5 NE 7 9 4 5 1008.0 1007.9 12.4
18/12:30am 22.3 24.0 19.3 83 1.9 NNW 9 11 5 6 1008.4 1008.3 12.4
18/12:00am 21.7 24.0 19.4 87 1.5 NNW 6 9 3 5 1008.6 1008.5 12.4
 
Date/Time
EDT
Temp
°C
App
Temp
°C
Dew
Point
°C
Rel
Hum
%
Delta-T
°C
Wind Press
QNH
hPa
Press
MSL
hPa
Rain since
9am
mm
Dir  Spd
km/h
Gust
km/h
Spd
kts
Gust
kts
17/11:30pm 21.8 24.2 20.1 90 1.1 N 7 9 4 5 1008.6 1008.5 12.4
17/11:00pm 21.8 25.3 20.4 92 0.9 W 2 7 1 4 1009.0 1008.9 12.4
17/10:30pm 21.7 24.6 19.8 89 1.2 NW 4 6 2 3 1009.5 1009.4 12.4
17/10:00pm 22.1 24.5 19.6 86 1.6 NW 6 7 3 4 1009.5 1009.4 12.4
17/09:30pm 22.2 24.5 19.9 87 1.5 NNW 7 13 4 7 1009.3 1009.2 12.4
17/09:00pm 22.3 23.5 20.0 87 1.5 N 13 19 7 10 1008.9 1008.8 12.4
17/08:30pm 22.5 23.7 20.6 89 1.2 NW 15 26 8 14 1009.1 1009.0 12.4
17/08:00pm 23.0 25.6 22.0 94 0.7 NE 11 24 6 13 1008.8 1008.7 10.4
17/07:30pm 22.9 25.7 21.5 92 0.9 SSE 9 17 5 9 1007.6 1007.5 9.6
17/07:00pm 23.3 25.6 21.4 89 1.3 NW 11 17 6 9 1007.1 1007.0 7.8
17/06:30pm 23.4 25.2 21.8 91 1.1 NE 15 20 8 11 1006.7 1006.6 7.8
17/06:00pm 23.2 25.2 21.6 91 1.1 NNE 13 15 7 8 1007.2 1007.1 7.8
17/05:30pm 23.0 24.8 21.1 89 1.2 NW 13 22 7 12 1007.5 1007.4 7.4
17/05:00pm 23.9 25.4 21.2 85 1.8 E 15 24 8 13 1006.9 1006.8 6.8
17/04:58pm 23.5 24.9 21.0 86 1.6 ENE 15 24 8 13 1007.1 1007.0 6.8
17/04:46pm 23.2 23.2 20.2 83 1.9 NNE 20 26 11 14 1007.4 1007.3 6.2
17/04:30pm 26.6 26.0 18.5 61 5.2 N 19 24 10 13 1008.0 1007.9 0.0
17/04:15pm 26.1 26.0 18.8 64 4.7 S 17 30 9 16 1007.4 1007.3 0.0
17/04:00pm 25.8 23.5 18.5 64 4.7 SSE 28 52 15 28 1005.4 1005.3 0.0
17/03:51pm 25.4 22.0 17.6 62 4.9 SSE 32 52 17 28 1004.9 1004.8 0.0
17/03:30pm 28.4 24.4 17.6 52 6.8 SSW 35 48 19 26 1005.4 1005.3 0.0
17/03:13pm 31.4 28.3 16.6 41 9.3 SW 28 50 15 27 1004.7 1004.6 0.0
17/03:00pm 35.3 35.4 15.6 31 12.4 SSW 9 17 5 9 1003.8 1003.7 0.0
17/02:30pm 36.1 34.8 15.8 30 12.8 SW 17 26 9 14 1004.4 1004.3 0.0
17/02:00pm 37.0 35.4 14.9 27 13.9 NNE 17 22 9 12 1004.9 1004.8 0.0
17/01:30pm 37.4 34.5 14.0 24 14.5 N 22 32 12 17 1005.6 1005.5 0.0
17/01:00pm 37.1 34.7 13.8 25 14.4 NNW 19 28 10 15 1006.0 1005.9 0.0
17/12:30pm 37.4 33.9 13.4 24 14.7 N 24 35 13 19 1006.7 1006.6 0.0
17/12:00pm 36.3 33.9 14.3 27 13.7 N 20 30 11 16 1007.5 1007.4 0.0
17/11:30am 35.6 33.5 14.8 28 12.9 N 19 28 10 15 1008.1 1008.0 0.0
17/11:00am 33.0 34.5 18.0 41 9.7 ENE 7 13 4 7 1008.7 1008.6 0.0
17/10:30am 30.2 31.3 18.0 48 7.8 E 9 13 5 7 1009.3 1009.2 0.0

Other Formats:

Comma delimited format used in spreadsheet applications
http://www.bom.gov.au/fwo/IDN60801/IDN60801.95753.axf

JavaScript Object Notation format (JSON) in row-major order
http://www.bom.gov.au/fwo/IDN60801/IDN60801.95753.json